Isle of Tiree, United Kingdom
Current Conditions -  °F | °C
As of 9:50 PM on Friday 31 Oct 2014 (Local Time) from EGPU Reporting Station
Clear Clear  
Wind Chill: 54°   Ceiling: Unl
Heat Index: 54°   Visibility: 6mi
Dew Point: 50°   Wind: 12mph
Humidity: 88%   Direction: 220°SW
Pressure: 29.56"   Gusts: NA
Location:  56.51°N, 6.81°W
Report Text: EGPU 312150Z AUTO 22010KT 9999 NCD 12/10 Q1001
Loading
Personal Weather Stations






























Interactive Weather Map New forecast layout! Learn more

10-Day Weather Forecast

Advertisements
Track Severe Weather on mobile